createdAt,value
2018-07-13T00:00:35.293Z,9.33
2018-07-13T00:03:04.853Z,11.90
2018-07-13T00:05:34.629Z,9.50
2018-07-13T00:08:03.955Z,10.20
2018-07-13T00:10:33.449Z,10.40
2018-07-13T00:13:03.016Z,9.40
2018-07-13T00:15:33.138Z,9.07
2018-07-13T00:18:02.995Z,9.50
2018-07-13T00:20:33.414Z,9.23
2018-07-13T00:23:04.074Z,9.57
2018-07-13T00:25:34.449Z,9.37
2018-07-13T00:28:04.528Z,12.87
2018-07-13T00:30:34.252Z,11.63
2018-07-13T00:33:03.869Z,12.03
2018-07-13T00:35:34.234Z,10.37
2018-07-13T00:38:03.709Z,9.70
2018-07-13T00:40:34.436Z,11.33
2018-07-13T00:43:05.152Z,12.70
2018-07-13T00:45:35.221Z,10.50
2018-07-13T00:48:05.212Z,10.00
2018-07-13T00:50:34.809Z,11.27
2018-07-13T00:53:04.477Z,10.33
2018-07-13T00:55:34.002Z,10.87
2018-07-13T00:58:03.603Z,11.70
2018-07-13T01:00:33.845Z,9.90
2018-07-13T01:03:04.684Z,9.60
2018-07-13T01:05:35.280Z,10.87
2018-07-13T01:08:05.470Z,13.75
2018-07-13T01:10:35.053Z,10.93
2018-07-13T01:13:05.588Z,11.40
2018-07-13T01:15:35.480Z,12.47
2018-07-13T01:18:05.729Z,10.90
2018-07-13T01:20:35.377Z,12.40
2018-07-13T01:23:05.745Z,12.27
2018-07-13T01:25:36.017Z,13.03
2018-07-13T01:28:06.095Z,12.93
2018-07-13T01:30:36.086Z,13.60
2018-07-13T01:33:06.164Z,12.57
2018-07-13T01:35:36.530Z,12.17
2018-07-13T01:38:06.577Z,13.00
2018-07-13T01:40:36.805Z,13.30
2018-07-13T01:43:06.388Z,12.53
2018-07-13T01:45:37.135Z,16.07
2018-07-13T01:48:08.101Z,15.57
2018-07-13T01:50:38.171Z,16.43
2018-07-13T01:53:08.872Z,14.67
2018-07-13T01:55:38.701Z,16.27
2018-07-13T01:58:08.649Z,15.43
2018-07-13T02:00:39.321Z,16.10
2018-07-13T02:03:08.784Z,16.53
2018-07-13T02:05:38.449Z,16.73
2018-07-13T02:08:08.285Z,16.53
2018-07-13T02:10:38.232Z,16.37
2018-07-13T02:13:08.765Z,16.83
2018-07-13T02:15:38.693Z,17.67
2018-07-13T02:18:09.317Z,18.43
2018-07-13T02:20:39.671Z,17.70
2018-07-13T02:23:09.548Z,18.83
2018-07-13T02:25:39.884Z,16.83
2018-07-13T02:28:09.453Z,19.00
2018-07-13T02:30:39.705Z,21.30
2018-07-13T02:33:09.609Z,21.60
2018-07-13T02:35:40.050Z,17.97
2018-07-13T02:38:10.168Z,20.20
2018-07-13T02:40:39.822Z,18.10
2018-07-13T02:43:09.561Z,18.30
2018-07-13T02:45:40.014Z,19.20
2018-07-13T02:48:09.737Z,21.83
2018-07-13T02:50:40.121Z,19.57
2018-07-13T02:53:10.165Z,21.23
2018-07-13T02:55:39.760Z,22.37
2018-07-13T02:58:09.677Z,20.13
2018-07-13T03:00:40.552Z,24.17
2018-07-13T03:03:11.234Z,19.20
2018-07-13T03:05:41.474Z,21.47
2018-07-13T03:08:11.158Z,22.77
2018-07-13T03:10:40.777Z,20.47
2018-07-13T03:13:11.512Z,22.87
2018-07-13T03:15:41.826Z,19.63
2018-07-13T03:18:11.669Z,20.60
2018-07-13T03:20:41.681Z,19.77
2018-07-13T03:23:12.221Z,18.60
2018-07-13T03:25:42.337Z,18.00
2018-07-13T03:28:12.316Z,19.13
2018-07-13T03:30:41.929Z,17.57
2018-07-13T03:33:11.869Z,19.70
2018-07-13T03:35:41.819Z,19.20
2018-07-13T03:38:11.885Z,19.43
2018-07-13T03:40:41.958Z,24.23
2018-07-13T03:43:11.644Z,28.33
2018-07-13T03:45:42.480Z,28.50
2018-07-13T03:48:11.947Z,30.43
2018-07-13T03:50:41.640Z,25.93
2018-07-13T03:53:11.684Z,25.87
2018-07-13T03:55:41.436Z,26.67
2018-07-13T03:58:11.202Z,26.37
2018-07-13T04:00:40.503Z,23.87
2018-07-13T04:03:09.768Z,22.67
2018-07-13T04:05:38.794Z,23.87
2018-07-13T04:08:08.404Z,25.67
2018-07-13T04:10:37.734Z,25.17
2018-07-13T04:13:06.680Z,25.30
2018-07-13T04:15:35.731Z,25.40
2018-07-13T04:18:05.538Z,22.67
2018-07-13T04:20:34.954Z,23.27
2018-07-13T04:23:03.898Z,22.30
2018-07-13T04:25:33.814Z,24.63
2018-07-13T04:28:03.728Z,25.30
2018-07-13T04:30:33.337Z,21.23
2018-07-13T04:33:02.638Z,23.43
2018-07-13T04:35:31.926Z,24.03
2018-07-13T04:38:01.282Z,19.60
2018-07-13T04:40:30.234Z,19.77
2018-07-13T04:42:59.196Z,21.83
2018-07-13T04:45:28.188Z,22.97
2018-07-13T04:47:57.164Z,20.83
2018-07-13T04:50:26.499Z,21.03
2018-07-13T04:53:15.441Z,19.33
2018-07-13T04:55:56.502Z,22.73
2018-07-13T04:58:34.124Z,21.13
2018-07-13T05:01:17.743Z,21.37
2018-07-13T05:04:00.301Z,20.43
2018-07-13T05:06:32.894Z,20.43
2018-07-13T05:09:04.700Z,18.93
2018-07-13T05:11:40.102Z,21.33
2018-07-13T05:14:25.471Z,18.55
2018-07-13T05:17:05.848Z,20.20
2018-07-13T05:19:40.700Z,20.00
2018-07-13T05:22:14.388Z,19.57
2018-07-13T05:24:55.100Z,20.43
2018-07-13T05:27:28.972Z,20.82
2018-07-13T05:29:59.284Z,18.65
2018-07-13T05:32:29.260Z,17.07
2018-07-13T05:34:59.047Z,16.43
2018-07-13T05:37:29.278Z,14.60
2018-07-13T05:39:59.006Z,12.43
2018-07-13T05:42:28.617Z,12.55
2018-07-13T05:44:57.927Z,13.45
2018-07-13T05:47:27.219Z,13.43
2018-07-13T05:49:56.512Z,11.22
2018-07-13T05:52:26.272Z,10.88
2018-07-13T05:54:55.731Z,9.00
2018-07-13T05:57:25.064Z,11.05
2018-07-13T05:59:54.331Z,11.40
2018-07-13T06:02:24.561Z,13.05
2018-07-13T06:04:53.862Z,14.18
2018-07-13T06:07:23.771Z,12.15
2018-07-13T06:09:53.057Z,13.15
2018-07-13T06:12:22.824Z,16.90
2018-07-13T06:14:51.989Z,11.97
2018-07-13T06:17:21.910Z,12.93
2018-07-13T06:19:51.208Z,11.22
2018-07-13T06:22:20.495Z,10.32
2018-07-13T06:24:49.796Z,9.90
2018-07-13T06:27:19.099Z,10.13
2018-07-13T06:29:49.009Z,11.68
2018-07-13T06:32:18.292Z,13.60
2018-07-13T06:34:47.587Z,9.75
2018-07-13T06:37:16.937Z,10.85
2018-07-13T06:39:46.212Z,11.38
2018-07-13T06:42:16.126Z,11.08
2018-07-13T06:44:45.165Z,11.30
2018-07-13T06:47:14.134Z,9.13
2018-07-13T06:49:43.181Z,10.70
2018-07-13T06:52:12.384Z,9.65
2018-07-13T06:54:41.910Z,10.68
2018-07-13T06:57:12.855Z,9.40
2018-07-13T06:59:42.764Z,9.73
2018-07-13T07:02:16.673Z,10.80
2018-07-13T07:04:45.680Z,11.70
2018-07-13T07:07:16.199Z,9.18
2018-07-13T07:09:47.348Z,10.90
2018-07-13T07:12:23.090Z,8.93
2018-07-13T07:14:53.007Z,12.70
2018-07-13T07:17:21.980Z,10.98
2018-07-13T07:19:51.298Z,12.75
2018-07-13T07:22:21.218Z,10.65
2018-07-13T07:24:50.516Z,9.95
2018-07-13T07:27:19.821Z,10.50
2018-07-13T07:29:49.091Z,12.55
2018-07-13T07:32:19.032Z,9.95
2018-07-13T07:34:48.307Z,11.05
2018-07-13T07:37:17.632Z,12.73
2018-07-13T07:39:46.592Z,10.65
2018-07-13T07:42:16.071Z,10.30
2018-07-13T07:44:45.531Z,8.58
2018-07-13T07:47:14.514Z,9.53
2018-07-13T07:49:43.927Z,8.45
2018-07-13T07:52:13.106Z,10.28
2018-07-13T07:54:43.033Z,10.80
2018-07-13T07:57:12.760Z,8.33
2018-07-13T07:59:42.872Z,11.50
2018-07-13T08:02:12.181Z,11.95
2018-07-13T08:04:41.437Z,8.45
2018-07-13T08:07:11.439Z,7.47
2018-07-13T08:09:40.345Z,10.03
2018-07-13T08:12:09.813Z,9.60
2018-07-13T08:14:39.412Z,12.40
2018-07-13T08:17:08.564Z,8.75
2018-07-13T08:19:37.607Z,12.63
2018-07-13T08:22:39.447Z,9.00
2018-07-13T08:25:09.680Z,9.60
2018-07-13T08:27:41.885Z,9.25
2018-07-13T08:30:17.087Z,8.85
2018-07-13T08:32:46.489Z,8.50
2018-07-13T08:35:16.441Z,10.03
2018-07-13T08:37:45.732Z,7.67
2018-07-13T08:40:14.958Z,8.18
2018-07-13T08:42:44.363Z,9.60
2018-07-13T08:45:13.903Z,8.25
2018-07-13T08:47:43.188Z,7.78
2018-07-13T08:50:12.167Z,9.58
2018-07-13T08:52:41.484Z,9.75
2018-07-13T08:55:13.562Z,8.98
2018-07-13T08:57:44.104Z,8.60
2018-07-13T09:00:13.403Z,7.53
2018-07-13T09:02:42.999Z,8.60
2018-07-13T09:05:12.301Z,9.50
2018-07-13T09:07:41.325Z,10.40
2018-07-13T09:10:10.968Z,13.18
2018-07-13T09:12:40.471Z,10.30
2018-07-13T09:15:10.361Z,11.38
2018-07-13T09:17:39.692Z,13.93
2018-07-13T09:20:10.259Z,12.13
2018-07-13T09:22:39.648Z,11.73
2018-07-13T09:25:08.896Z,13.22
2018-07-13T09:27:38.517Z,16.48
2018-07-13T09:30:08.070Z,10.63
2018-07-13T09:32:37.408Z,11.60
2018-07-13T09:35:07.288Z,11.10
2018-07-13T09:37:36.711Z,10.93
2018-07-13T09:40:06.021Z,9.75
2018-07-13T09:42:36.111Z,13.28
2018-07-13T09:45:05.391Z,11.78
2018-07-13T09:47:35.168Z,10.55
2018-07-13T09:50:04.601Z,10.75
2018-07-13T09:52:33.834Z,14.05
2018-07-13T09:55:03.532Z,11.70
2018-07-13T09:57:32.856Z,10.65
2018-07-13T10:00:02.897Z,11.38
2018-07-13T10:02:32.371Z,13.08
2018-07-13T10:05:01.990Z,12.47
2018-07-13T10:07:30.971Z,11.48
2018-07-13T10:10:00.324Z,13.13
2018-07-13T10:12:30.170Z,10.93
2018-07-13T10:15:00.090Z,9.83
2018-07-13T10:17:29.086Z,9.88
2018-07-13T10:19:58.367Z,10.65
2018-07-13T10:22:28.396Z,27.17
2018-07-13T10:24:58.627Z,9.85
2018-07-13T10:27:29.687Z,11.33
2018-07-13T10:29:59.252Z,12.85
2018-07-13T10:32:28.569Z,11.50
2018-07-13T10:34:58.224Z,11.57
2018-07-13T10:37:28.112Z,12.78
2018-07-13T10:39:57.450Z,11.00
2018-07-13T10:42:26.664Z,11.22
2018-07-13T10:44:55.720Z,10.43
2018-07-13T10:47:24.977Z,8.95
2018-07-13T10:49:54.289Z,10.75
2018-07-13T10:52:23.898Z,9.63
2018-07-13T10:54:53.196Z,9.35
2018-07-13T10:57:22.600Z,9.78
2018-07-13T10:59:52.736Z,8.70
2018-07-13T11:02:22.170Z,8.65
2018-07-13T11:04:51.935Z,9.10
2018-07-13T11:07:21.541Z,8.35
2018-07-13T11:09:50.842Z,8.28
2018-07-13T11:12:20.449Z,8.63
2018-07-13T11:14:50.057Z,8.30
2018-07-13T11:17:19.665Z,8.88
2018-07-13T11:19:48.966Z,7.90
2018-07-13T11:22:17.929Z,8.15
2018-07-13T11:24:48.796Z,10.38
2018-07-13T11:27:17.756Z,9.30
2018-07-13T11:29:46.775Z,8.38
2018-07-13T11:32:15.748Z,8.98
2018-07-13T11:34:44.732Z,9.70
2018-07-13T11:37:13.932Z,8.88
2018-07-13T11:39:43.061Z,8.50
2018-07-13T11:42:12.028Z,7.90
2018-07-13T11:44:41.336Z,7.75
2018-07-13T11:47:10.660Z,9.88
2018-07-13T11:49:40.264Z,9.18
2018-07-13T11:52:09.607Z,8.28
2018-07-13T11:54:38.842Z,8.20
2018-07-13T11:57:08.137Z,8.03
2018-07-13T11:59:37.773Z,8.73
2018-07-13T12:02:07.381Z,7.92
2018-07-13T12:04:36.918Z,7.75
2018-07-13T12:07:06.113Z,7.53
2018-07-13T12:09:35.252Z,8.53
2018-07-13T12:12:05.197Z,7.70
2018-07-13T12:14:34.192Z,7.05
2018-07-13T12:17:03.798Z,8.30
2018-07-13T12:19:32.760Z,7.75
2018-07-13T12:22:01.800Z,6.85
2018-07-13T12:24:31.091Z,6.40
2018-07-13T12:27:01.353Z,6.70
2018-07-13T12:29:30.568Z,7.95
2018-07-13T12:32:00.216Z,8.65
2018-07-13T12:34:29.206Z,6.85
2018-07-13T12:36:58.815Z,7.45
2018-07-13T12:39:28.468Z,7.28
2018-07-13T12:41:57.679Z,7.17
2018-07-13T12:44:26.984Z,7.85
2018-07-13T12:46:56.632Z,8.15
2018-07-13T12:49:26.239Z,8.65
2018-07-13T12:51:55.297Z,5.62
2018-07-13T12:54:24.499Z,6.37
2018-07-13T12:56:53.787Z,6.80
2018-07-13T12:59:23.145Z,6.17
2018-07-13T13:01:52.890Z,7.12
2018-07-13T13:04:22.970Z,6.50
2018-07-13T13:06:51.976Z,7.58
2018-07-13T13:09:21.111Z,7.12
2018-07-13T13:11:51.175Z,7.20
2018-07-13T13:14:20.831Z,6.37
2018-07-13T13:16:49.734Z,6.62
2018-07-13T13:19:26.625Z,6.97
2018-07-13T13:21:56.136Z,7.75
2018-07-13T13:24:25.364Z,6.72
2018-07-13T13:26:54.655Z,9.38
2018-07-13T13:29:24.302Z,9.45
2018-07-13T13:31:53.877Z,9.88
2018-07-13T13:34:23.187Z,9.33
2018-07-13T13:36:52.543Z,8.13
2018-07-13T13:39:21.775Z,6.87
2018-07-13T13:41:51.160Z,9.58
2018-07-13T13:44:20.570Z,6.97
2018-07-13T13:46:50.127Z,7.37
2018-07-13T13:49:19.592Z,6.37
2018-07-13T13:51:49.505Z,6.62
2018-07-13T13:54:18.460Z,7.40
2018-07-13T13:56:47.831Z,8.85
2018-07-13T13:59:17.767Z,6.30
2018-07-13T14:01:46.813Z,7.10
2018-07-13T14:04:16.465Z,7.72
2018-07-13T14:06:45.683Z,7.85
2018-07-13T14:09:15.165Z,7.58
2018-07-13T14:11:45.134Z,7.17
2018-07-13T14:14:14.748Z,6.40
2018-07-13T14:16:44.023Z,6.83
2018-07-13T14:19:13.032Z,8.68
2018-07-13T14:21:41.985Z,8.83
2018-07-13T14:24:12.250Z,9.75
2018-07-13T14:26:41.548Z,7.60
2018-07-13T14:29:10.805Z,7.80
2018-07-13T14:31:40.769Z,9.65
2018-07-13T14:34:10.683Z,7.17
2018-07-13T14:36:40.127Z,6.90
2018-07-13T14:39:10.512Z,5.97
2018-07-13T14:41:40.121Z,5.90
2018-07-13T14:44:09.420Z,6.75
2018-07-13T14:46:38.669Z,9.15
2018-07-13T14:49:08.906Z,6.17
2018-07-13T14:51:37.920Z,6.47
2018-07-13T14:54:07.549Z,6.83
2018-07-13T14:56:37.915Z,8.38
2018-07-13T14:59:07.089Z,7.22
2018-07-13T15:01:36.678Z,9.98
2018-07-13T15:04:06.153Z,11.25
2018-07-13T15:06:35.649Z,9.28
2018-07-13T15:09:06.544Z,5.35
2018-07-13T15:11:36.291Z,5.97
2018-07-13T15:14:05.599Z,5.95
2018-07-13T15:16:35.551Z,7.28
2018-07-13T15:19:05.355Z,8.05
2018-07-13T15:21:35.381Z,6.87
2018-07-13T15:24:05.371Z,6.03
2018-07-13T15:26:34.647Z,5.12
2018-07-13T15:29:05.081Z,6.03
2018-07-13T15:31:34.608Z,5.30
2018-07-13T15:34:04.675Z,6.22
2018-07-13T15:36:34.658Z,6.87
2018-07-13T15:39:04.383Z,8.23
2018-07-13T15:41:33.489Z,5.22
2018-07-13T15:44:02.773Z,5.62
2018-07-13T15:46:32.379Z,5.55
2018-07-13T15:49:02.007Z,7.83
2018-07-13T15:51:31.119Z,5.87
2018-07-13T15:54:00.599Z,5.85
2018-07-13T15:56:29.897Z,7.33
2018-07-13T15:58:59.361Z,5.17
2018-07-13T16:01:29.718Z,7.55
2018-07-13T16:03:59.340Z,5.67
2018-07-13T16:06:28.399Z,7.45
2018-07-13T16:08:57.618Z,8.68
2018-07-13T16:11:26.583Z,5.65
2018-07-13T16:13:56.220Z,5.75
2018-07-13T16:16:25.683Z,5.85
2018-07-13T16:18:54.821Z,5.60
2018-07-13T16:21:24.741Z,18.05
2018-07-13T16:23:54.346Z,7.50
2018-07-13T16:26:24.020Z,5.00
2018-07-13T16:28:53.201Z,6.97
2018-07-13T16:31:23.096Z,8.63
2018-07-13T16:33:53.755Z,5.75
2018-07-13T16:36:23.655Z,5.35
2018-07-13T16:38:53.527Z,4.70
2018-07-13T16:41:26.123Z,6.80
2018-07-13T16:43:55.199Z,7.78
2018-07-13T16:46:26.781Z,7.60
2018-07-13T16:48:56.738Z,4.62
2018-07-13T16:51:26.347Z,5.25
2018-07-13T16:53:55.780Z,6.75
2018-07-13T16:56:25.124Z,5.70
2018-07-13T16:58:54.695Z,5.50
2018-07-13T17:01:24.308Z,5.85
2018-07-13T17:03:53.571Z,4.37
2018-07-13T17:06:23.211Z,7.60
2018-07-13T17:08:53.012Z,6.03
2018-07-13T17:11:22.573Z,8.93
2018-07-13T17:13:52.203Z,6.67
2018-07-13T17:16:21.683Z,5.45
2018-07-13T17:18:50.739Z,7.90
2018-07-13T17:21:19.984Z,7.10
2018-07-13T17:23:48.935Z,6.20
2018-07-13T17:26:18.591Z,5.05
2018-07-13T17:28:47.979Z,5.50
2018-07-13T17:31:17.580Z,5.35
2018-07-13T17:33:47.015Z,6.72
2018-07-13T17:36:16.965Z,5.90
2018-07-13T17:38:46.263Z,6.15
2018-07-13T17:41:15.582Z,5.62
2018-07-13T17:43:45.013Z,6.37
2018-07-13T17:46:14.468Z,5.78
2018-07-13T17:48:43.756Z,7.30
2018-07-13T17:51:13.546Z,7.65
2018-07-13T17:53:43.603Z,6.75
2018-07-13T17:56:13.208Z,5.50
2018-07-13T17:58:42.656Z,4.90
2018-07-13T18:01:12.116Z,9.78
2018-07-13T18:03:41.111Z,9.13
2018-07-13T18:06:10.841Z,6.70
2018-07-13T18:08:40.060Z,8.33
2018-07-13T18:11:09.319Z,11.03
2018-07-13T18:13:38.900Z,7.83
2018-07-13T18:16:08.371Z,6.37
2018-07-13T18:18:38.144Z,7.62
2018-07-13T18:21:07.812Z,10.70
2018-07-13T18:23:37.535Z,7.22
2018-07-13T18:26:06.650Z,6.22
2018-07-13T18:28:35.627Z,13.32
2018-07-13T18:31:04.688Z,7.67
2018-07-13T18:33:34.171Z,11.90
2018-07-13T18:36:03.643Z,10.28
2018-07-13T18:38:33.182Z,13.70
2018-07-13T18:41:02.602Z,9.95
2018-07-13T18:43:32.587Z,11.95
2018-07-13T18:46:02.289Z,7.45
2018-07-13T18:48:32.118Z,9.28
2018-07-13T18:51:01.811Z,10.10
2018-07-13T18:53:31.418Z,7.85
2018-07-13T18:56:01.026Z,7.65
2018-07-13T18:58:30.326Z,7.50
2018-07-13T19:00:59.859Z,8.33
2018-07-13T19:03:29.547Z,9.38
2018-07-13T19:05:58.817Z,7.70
2018-07-13T19:08:28.145Z,7.17
2018-07-13T19:10:57.139Z,6.10
2018-07-13T19:13:27.430Z,8.70
2018-07-13T19:15:56.623Z,7.92
2018-07-13T19:18:26.267Z,6.47
2018-07-13T19:20:56.376Z,7.42
2018-07-13T19:23:27.158Z,6.90
2018-07-13T19:25:56.738Z,7.97
2018-07-13T19:28:25.887Z,9.20
2018-07-13T19:30:56.041Z,7.55
2018-07-13T19:33:25.806Z,6.92
2018-07-13T19:35:55.555Z,8.03
2018-07-13T19:38:25.280Z,8.08
2018-07-13T19:40:55.331Z,10.60
2018-07-13T19:43:32.172Z,11.63
2018-07-13T19:46:02.105Z,9.30
2018-07-13T19:48:32.491Z,9.23
2018-07-13T19:51:01.944Z,8.80
2018-07-13T19:53:31.248Z,9.35
2018-07-13T19:56:00.585Z,7.08
2018-07-13T19:58:30.134Z,11.30
2018-07-13T20:00:59.424Z,6.85
2018-07-13T20:03:29.348Z,6.00
2018-07-13T20:05:58.716Z,6.87
2018-07-13T20:08:27.688Z,7.75
2018-07-13T20:10:57.018Z,8.55
2018-07-13T20:13:26.490Z,6.53
2018-07-13T20:15:56.463Z,6.83
2018-07-13T20:18:26.451Z,6.20
2018-07-13T20:20:55.985Z,7.45
2018-07-13T20:23:25.393Z,7.10
2018-07-13T20:25:54.889Z,7.28
2018-07-13T20:28:30.411Z,6.95
2018-07-13T20:31:01.375Z,7.25
2018-07-13T20:33:31.056Z,7.37
2018-07-13T20:36:00.471Z,7.35
2018-07-13T20:38:31.189Z,7.00
2018-07-13T20:41:01.469Z,6.90
2018-07-13T20:43:31.729Z,9.30
2018-07-13T20:46:01.131Z,8.80
2018-07-13T20:48:30.890Z,8.80
2018-07-13T20:51:00.272Z,8.10
2018-07-13T20:53:29.320Z,9.47
2018-07-13T20:55:59.351Z,8.80
2018-07-13T20:58:28.701Z,7.22
2018-07-13T21:00:57.979Z,21.85
2018-07-13T21:03:27.848Z,18.10
2018-07-13T21:05:57.166Z,9.03
2018-07-13T21:08:27.131Z,8.35
2018-07-13T21:10:57.051Z,7.97
2018-07-13T21:13:27.023Z,6.15
2018-07-13T21:16:00.592Z,8.50
2018-07-13T21:18:30.477Z,6.20
2018-07-13T21:20:59.568Z,7.20
2018-07-13T21:23:29.310Z,6.50
2018-07-13T21:25:58.686Z,7.15
2018-07-13T21:28:28.833Z,7.77
2018-07-13T21:30:58.825Z,8.57
2018-07-13T21:33:29.265Z,6.12
2018-07-13T21:35:58.346Z,9.05
2018-07-13T21:38:28.447Z,7.60
2018-07-13T21:40:59.409Z,6.17
2018-07-13T21:43:30.149Z,8.70
2018-07-13T21:45:59.842Z,5.30
2018-07-13T21:48:29.294Z,5.47
2018-07-13T21:50:59.414Z,6.15
2018-07-13T21:53:28.985Z,6.15
2018-07-13T21:55:57.942Z,8.00
2018-07-13T21:58:27.273Z,5.70
2018-07-13T22:00:56.880Z,6.30
2018-07-13T22:03:26.104Z,5.00
2018-07-13T22:05:55.494Z,7.07
2018-07-13T22:08:25.125Z,8.63
2018-07-13T22:10:54.698Z,5.20
2018-07-13T22:13:23.925Z,5.00
2018-07-13T22:15:53.604Z,4.75
2018-07-13T22:18:23.056Z,3.80
2018-07-13T22:20:52.829Z,6.77
2018-07-13T22:23:22.163Z,4.78
2018-07-13T22:25:52.354Z,5.57
2018-07-13T22:28:21.961Z,5.50
2018-07-13T22:30:51.610Z,8.90
2018-07-13T22:33:21.204Z,6.77
2018-07-13T22:35:51.771Z,6.03
2018-07-13T22:38:21.662Z,9.87
2018-07-13T22:40:51.211Z,5.30
2018-07-13T22:43:21.016Z,9.65
2018-07-13T22:45:52.041Z,6.30
2018-07-13T22:48:21.884Z,4.73
2018-07-13T22:50:51.319Z,4.53
2018-07-13T22:53:21.409Z,3.80
2018-07-13T22:55:52.698Z,6.92
2018-07-13T22:58:21.902Z,4.42
2018-07-13T23:00:51.459Z,4.72
2018-07-13T23:03:21.065Z,4.73
2018-07-13T23:05:50.397Z,4.80
2018-07-13T23:08:19.464Z,4.35
2018-07-13T23:10:48.972Z,3.98
2018-07-13T23:13:17.942Z,6.17
2018-07-13T23:15:47.407Z,4.00
2018-07-13T23:18:16.703Z,4.25
2018-07-13T23:20:46.398Z,5.63
2018-07-13T23:23:16.017Z,7.00
2018-07-13T23:25:45.115Z,4.30
2018-07-13T23:28:14.023Z,3.58
2018-07-13T23:30:43.049Z,4.72
2018-07-13T23:33:12.740Z,5.15
2018-07-13T23:35:42.656Z,5.27
2018-07-13T23:38:12.992Z,5.53
2018-07-13T23:40:42.736Z,5.77
2018-07-13T23:43:12.411Z,4.55
2018-07-13T23:45:42.021Z,4.73
2018-07-13T23:48:12.310Z,5.92
2018-07-13T23:50:41.836Z,6.17
2018-07-13T23:53:11.692Z,4.33
2018-07-13T23:55:41.367Z,5.65
2018-07-13T23:58:11.519Z,4.53
